Time;durP1;ratioP1;P1;durP2;ratioP2;P2;SDS_P1;SDS_P2;PMS_P1;PMS_P2;Temp;Humidity;BMP_temperature;BMP_pressure;BME280_temperature;BME280_humidity;BME280_pressure;Samples;Min_cycle;Max_cycle;Signal;HPM_P1;HPM_P2
2021/12/11 00:01:42;;;;;;;26.95;14.98;;;4.10;99.90;;;4.26;100.00;98580.75;4986037;28;117404;-76
2021/12/11 00:04:17;;;;;;;29.55;16.95;;;4.10;99.90;;;4.27;100.00;98586.91;4992745;28;115891;-76
2021/12/11 00:06:49;;;;;;;25.10;15.45;;;4.10;99.90;;;4.36;100.00;98593.22;4989296;28;130992;-76
2021/12/11 00:09:24;;;;;;;27.13;16.65;;;4.20;99.90;;;4.41;100.00;98600.41;4987595;28;130074;-76
2021/12/11 00:12:05;;;;;;;28.23;16.27;;;4.20;99.90;;;4.36;100.00;98593.22;4986659;28;118265;-76
2021/12/11 00:14:38;;;;;;;26.30;15.07;;;4.20;99.90;;;4.38;100.00;98599.13;4997879;28;115293;-76
2021/12/11 00:17:08;;;;;;;27.60;17.48;;;4.20;99.90;;;4.47;100.00;98602.75;4995344;28;130061;-76
2021/12/11 00:19:41;;;;;;;28.10;16.77;;;4.20;99.90;;;4.47;100.00;98602.75;4995352;28;129473;-75
2021/12/11 00:22:15;;;;;;;30.15;16.50;;;4.20;99.90;;;4.50;100.00;98604.03;4988736;28;118630;-74
2021/12/11 00:24:45;;;;;;;27.02;15.98;;;4.20;99.90;;;4.46;100.00;98598.44;4991871;28;116028;-75
2021/12/11 00:27:20;;;;;;;29.23;16.05;;;4.20;99.90;;;4.49;100.00;98611.31;4983999;28;129036;-75
2021/12/11 00:29:50;;;;;;;27.05;15.70;;;4.20;99.90;;;4.39;100.00;98610.66;4990318;28;130108;-75
2021/12/11 00:32:24;;;;;;;26.25;15.38;;;4.20;99.90;;;4.43;100.00;98606.31;5001492;28;120018;-75
2021/12/11 00:34:55;;;;;;;24.95;15.20;;;4.20;99.90;;;4.37;100.00;98613.63;4995576;28;116343;-75
2021/12/11 00:37:26;;;;;;;29.05;15.27;;;4.20;99.90;;;4.40;100.00;98601.53;5001680;28;129270;-76
2021/12/11 00:40:02;;;;;;;25.95;14.88;;;4.30;99.90;;;4.48;100.00;98617.75;4986657;28;130942;-75
2021/12/11 00:42:34;;;;;;;22.15;13.75;;;4.30;99.90;;;4.53;100.00;98616.09;5003780;28;118506;-76
2021/12/11 00:45:11;;;;;;;26.60;14.85;;;4.30;99.90;;;4.63;100.00;98621.31;4998573;28;115704;-75
2021/12/11 00:47:46;;;;;;;23.83;14.45;;;4.30;99.90;;;4.60;100.00;98617.31;5008992;28;130507;-76
2021/12/11 00:50:19;;;;;;;21.92;13.10;;;4.30;99.90;;;4.49;100.00;98610.50;4988562;28;129631;-75
2021/12/11 00:52:54;;;;;;;21.63;12.65;;;4.30;99.90;;;4.49;100.00;98616.69;4992546;28;117809;-75
2021/12/11 00:55:26;;;;;;;25.83;13.07;;;4.30;99.90;;;4.59;100.00;98610.34;4986444;28;115907;-75
2021/12/11 00:58:09;;;;;;;19.90;11.90;;;4.30;99.90;;;4.60;100.00;98617.31;5001359;28;131375;-75
2021/12/11 01:00:45;;;;;;;19.90;11.52;;;4.30;99.90;;;4.61;100.00;98613.56;5002678;28;131029;-75
2021/12/11 01:03:20;;;;;;;19.37;12.40;;;4.30;99.90;;;4.65;100.00;98609.16;5010494;28;119046;-76
2021/12/11 01:05:53;;;;;;;18.25;11.38;;;4.30;99.90;;;4.57;100.00;98607.16;4994800;28;115863;-75
2021/12/11 01:08:31;;;;;;;16.35;9.98;;;4.30;99.90;;;4.60;100.00;98611.94;5002821;28;128716;-76
2021/12/11 01:11:08;;;;;;;20.02;11.32;;;4.30;99.90;;;4.60;100.00;98606.56;4996501;28;130327;-75
2021/12/11 01:13:46;;;;;;;18.08;10.13;;;4.40;99.90;;;4.60;100.00;98617.31;4993817;28;118145;-75
2021/12/11 01:16:16;;;;;;;17.63;10.10;;;4.30;99.90;;;4.60;100.00;98617.31;4992592;28;115973;-75
2021/12/11 01:18:49;;;;;;;16.70;9.52;;;4.30;99.90;;;4.65;100.00;98614.53;4986796;28;129841;-75
2021/12/11 01:21:31;;;;;;;16.70;8.77;;;4.30;99.90;;;4.48;100.00;98604.31;4999711;28;129655;-76
2021/12/11 01:24:15;;;;;;;14.48;8.75;;;4.30;99.90;;;4.45;100.00;98609.50;5003268;28;118735;-75
2021/12/11 01:26:50;;;;;;;16.17;8.93;;;4.30;99.90;;;4.54;100.00;98602.38;4996888;28;114275;-75
2021/12/11 01:29:24;;;;;;;15.80;9.50;;;4.30;99.90;;;4.62;100.00;98609.75;4988174;28;130460;-75
2021/12/11 01:31:59;;;;;;;15.32;9.48;;;4.30;99.90;;;4.60;100.00;98609.25;5001497;28;129990;-75
2021/12/11 01:34:30;;;;;;;14.90;9.18;;;4.40;99.90;;;4.59;100.00;98610.34;5005186;28;117869;-76
2021/12/11 01:37:00;;;;;;;16.45;9.70;;;4.30;99.90;;;4.59;100.00;98604.97;4988914;28;114119;-75
2021/12/11 01:39:35;;;;;;;14.95;8.95;;;4.30;99.90;;;4.65;100.00;98611.06;4997634;28;129090;-76
2021/12/11 01:42:09;;;;;;;15.43;9.45;;;4.30;99.90;;;4.73;100.00;98610.38;4988434;28;130134;-75
2021/12/11 01:44:41;;;;;;;14.25;8.55;;;4.30;99.90;;;4.62;100.00;98607.06;4998083;28;118894;-76
2021/12/11 01:47:18;;;;;;;14.27;8.93;;;4.40;99.90;;;4.63;100.00;98611.34;5008660;28;116629;-76
2021/12/11 01:49:50;;;;;;;13.38;9.20;;;4.40;99.90;;;4.67;100.00;98609.69;4988070;28;130088;-76
2021/12/11 01:52:32;;;;;;;15.10;8.77;;;4.40;99.90;;;4.62;100.00;98615.13;4996344;28;129995;-75
2021/12/11 01:55:02;;;;;;;14.57;8.63;;;4.40;99.90;;;4.63;100.00;98616.72;4986978;28;118424;-76
2021/12/11 01:57:33;;;;;;;14.05;8.73;;;4.40;99.90;;;4.71;100.00;98606.41;5004646;28;115553;-75
2021/12/11 02:00:13;;;;;;;15.52;9.38;;;4.40;99.90;;;4.66;100.00;98621.53;5007082;28;130105;-75
2021/12/11 02:02:49;;;;;;;13.80;8.93;;;4.50;99.90;;;4.70;100.00;98616.34;5006100;28;130568;-75
2021/12/11 02:05:23;;;;;;;13.88;8.50;;;4.50;99.90;;;4.68;100.00;98630.06;5006096;28;118027;-76
2021/12/11 02:07:56;;;;;;;13.70;8.75;;;4.40;99.90;;;4.72;100.00;98624.94;4992212;28;114787;-76
2021/12/11 02:10:33;;;;;;;13.93;8.88;;;4.40;99.90;;;4.70;100.00;98629.00;4996064;28;130128;-76
2021/12/11 02:13:06;;;;;;;14.23;9.43;;;4.40;99.90;;;4.62;100.00;98625.88;4991496;28;129623;-75
2021/12/11 02:15:47;;;;;;;13.65;8.27;;;4.50;99.90;;;4.65;100.00;98630.66;4997534;28;117639;-74
2021/12/11 02:18:22;;;;;;;14.75;8.52;;;4.50;99.90;;;4.62;100.00;98631.25;4995243;28;114721;-75
2021/12/11 02:20:57;;;;;;;13.13;7.88;;;4.50;99.90;;;4.76;100.00;98630.50;4988751;28;129584;-75
2021/12/11 02:23:29;;;;;;;13.30;7.78;;;4.50;99.90;;;4.78;100.00;98628.31;4996770;28;129879;-76
2021/12/11 02:26:05;;;;;;;12.70;7.80;;;4.50;99.90;;;4.71;100.00;98635.97;5007068;28;118018;-75
2021/12/11 02:28:42;;;;;;;10.85;7.25;;;4.50;99.90;;;4.83;100.00;98637.09;5006901;28;114554;-75
2021/12/11 02:31:19;;;;;;;9.82;6.03;;;4.50;99.90;;;4.90;100.00;98630.56;4986302;28;129780;-74
2021/12/11 02:33:55;;;;;;;10.10;6.70;;;4.60;99.90;;;4.96;100.00;98632.84;4979812;28;130081;-74
2021/12/11 02:36:30;;;;;;;11.23;6.40;;;4.60;99.90;;;4.96;100.00;98637.44;4993588;28;118576;-75
2021/12/11 02:39:06;;;;;;;10.48;6.80;;;4.60;99.90;;;4.86;100.00;98647.28;4998924;28;115824;-75
2021/12/11 02:41:50;;;;;;;10.68;6.80;;;4.60;99.90;;;4.85;100.00;98639.50;4999033;28;130258;-75
2021/12/11 02:44:26;;;;;;;10.85;6.53;;;4.60;99.90;;;4.91;100.00;98638.31;4986273;28;129409;-75
2021/12/11 02:47:01;;;;;;;8.80;5.78;;;4.60;99.90;;;4.90;100.00;98644.78;4992700;28;118273;-75
2021/12/11 02:49:34;;;;;;;10.20;6.15;;;4.60;99.90;;;4.91;100.00;98642.88;4994709;28;115372;-74
2021/12/11 02:52:10;;;;;;;11.70;6.47;;;4.60;99.90;;;4.91;100.00;98648.25;4999679;28;129588;-75
2021/12/11 02:54:47;;;;;;;9.70;5.90;;;4.60;99.90;;;4.92;100.00;98645.28;4992519;28;129798;-75
2021/12/11 02:57:25;;;;;;;8.73;5.80;;;4.70;99.90;;;4.97;100.00;98653.28;4991599;28;118912;-75
2021/12/11 02:59:55;;;;;;;9.57;5.78;;;4.70;99.90;;;4.98;100.00;98654.84;4986783;28;115015;-75
2021/12/11 03:02:30;;;;;;;8.82;5.25;;;4.70;99.90;;;4.99;100.00;98653.78;5000720;28;130338;-75
2021/12/11 03:05:08;;;;;;;7.90;5.50;;;4.70;99.90;;;4.99;100.00;98656.47;4999663;28;130470;-75
2021/12/11 03:07:39;;;;;;;8.40;5.03;;;4.70;99.90;;;5.06;100.00;98661.44;4994270;28;119882;-76
2021/12/11 03:10:13;;;;;;;10.55;6.00;;;4.70;99.90;;;5.08;100.00;98669.22;4987380;28;114994;-76
2021/12/11 03:12:44;;;;;;;8.48;5.20;;;4.70;99.90;;;5.11;100.00;98669.44;4989883;28;129223;-76
2021/12/11 03:15:18;;;;;;;7.45;5.45;;;4.70;99.90;;;5.03;100.00;98668.25;5005301;28;129441;-76
2021/12/11 03:17:47;;;;;;;8.32;5.47;;;4.70;99.90;;;5.13;100.00;98666.47;4982127;28;118782;-76
2021/12/11 03:20:19;;;;;;;8.98;5.25;;;4.70;99.90;;;5.07;100.00;98663.06;4974005;28;114745;-75
2021/12/11 03:22:48;;;;;;;8.05;5.32;;;4.80;99.90;;;5.16;100.00;98671.25;4993629;28;129983;-75
2021/12/11 03:25:24;;;;;;;9.05;5.10;;;4.80;99.90;;;5.15;100.00;98672.34;4993545;28;129924;-75
2021/12/11 03:27:53;;;;;;;7.97;5.18;;;4.80;99.90;;;5.05;100.00;98667.94;4999288;28;117874;-75
2021/12/11 03:30:27;;;;;;;7.00;5.13;;;4.80;99.90;;;5.20;100.00;98673.06;5007697;28;115830;-75
2021/12/11 03:33:05;;;;;;;8.63;5.43;;;4.80;99.90;;;5.25;100.00;98665.97;5001374;28;129852;-76
2021/12/11 03:35:34;;;;;;;8.35;5.18;;;4.90;99.90;;;5.27;100.00;98672.66;4993206;28;129632;-75
2021/12/11 03:38:03;;;;;;;7.95;5.93;;;4.90;99.90;;;5.11;100.00;98665.94;4992953;28;118901;-76
2021/12/11 03:40:34;;;;;;;9.07;5.82;;;4.80;99.90;;;5.17;100.00;98670.16;5002703;28;115019;-76
2021/12/11 03:43:09;;;;;;;10.70;5.95;;;4.90;99.90;;;5.16;100.00;98665.88;4989630;28;129586;-75
2021/12/11 03:45:43;;;;;;;9.20;6.13;;;4.90;99.90;;;5.18;100.00;98659.09;4992117;28;129751;-75
2021/12/11 03:48:17;;;;;;;8.85;6.22;;;4.90;99.90;;;5.18;100.00;98669.06;4993220;28;119200;-76
2021/12/11 03:50:47;;;;;;;8.77;5.75;;;4.90;99.90;;;5.00;100.00;98666.13;4984358;28;114920;-76
2021/12/11 03:53:18;;;;;;;9.52;6.28;;;4.90;99.90;;;5.10;100.00;98673.22;4994604;28;130014;-76
2021/12/11 03:55:52;;;;;;;8.93;6.07;;;4.90;99.90;;;5.13;100.00;98671.84;4985386;28;128731;-75
2021/12/11 03:58:22;;;;;;;8.32;5.75;;;4.90;99.90;;;5.23;100.00;98671.66;4995747;28;119699;-76
2021/12/11 04:00:53;;;;;;;9.73;6.60;;;4.90;99.90;;;5.19;100.00;98678.72;4991200;28;115056;-76
2021/12/11 04:03:28;;;;;;;9.05;6.32;;;4.90;99.90;;;5.23;100.00;98666.28;4989956;28;129696;-76
2021/12/11 04:06:00;;;;;;;9.15;6.38;;;4.90;99.90;;;5.28;100.00;98668.06;4995683;28;130341;-76
2021/12/11 04:08:34;;;;;;;8.73;6.18;;;5.00;99.90;;;5.23;100.00;98666.28;5000996;28;118405;-76
2021/12/11 04:11:05;;;;;;;9.02;5.95;;;5.00;99.90;;;5.21;100.00;98684.59;4977319;28;114173;-76
2021/12/11 04:13:34;;;;;;;10.07;6.07;;;5.00;99.90;;;5.34;100.00;98672.28;5002563;28;129636;-76
2021/12/11 04:16:03;;;;;;;9.32;6.45;;;5.00;99.90;;;5.36;100.00;98665.50;4989379;28;129570;-75
2021/12/11 04:18:31;;;;;;;11.05;6.28;;;5.10;99.90;;;5.35;100.00;98674.66;4997300;28;118783;-76
2021/12/11 04:21:00;;;;;;;9.07;6.38;;;5.10;99.90;;;5.29;100.00;98678.53;5027444;28;114888;-76
2021/12/11 04:23:29;;;;;;;10.30;6.47;;;5.10;99.90;;;5.37;100.00;98680.53;4995907;28;130850;-75
2021/12/11 04:25:59;;;;;;;10.43;6.35;;;5.10;99.90;;;5.42;100.00;98673.47;4997190;28;129963;-75
2021/12/11 04:28:35;;;;;;;10.23;6.93;;;5.10;99.90;;;5.52;100.00;98681.38;4987371;28;118839;-75
2021/12/11 04:31:14;;;;;;;11.15;7.32;;;5.20;99.90;;;5.40;100.00;98677.25;4990086;28;115278;-75
2021/12/11 04:33:47;;;;;;;11.68;7.82;;;5.20;99.90;;;5.34;100.00;98675.75;4999031;28;129906;-76
2021/12/11 04:36:19;;;;;;;13.68;7.32;;;5.20;99.90;;;5.49;100.00;98684.66;4997178;28;129580;-76
2021/12/11 04:38:49;;;;;;;11.48;6.90;;;5.30;99.90;;;5.53;100.00;98675.69;5001445;28;117369;-76
2021/12/11 04:41:29;;;;;;;11.48;7.72;;;5.30;99.90;;;5.63;100.00;98680.06;4993219;28;115108;-77
2021/12/11 04:44:03;;;;;;;9.43;6.60;;;5.30;99.90;;;5.59;100.00;98681.75;4996678;28;129858;-76
2021/12/11 04:46:32;;;;;;;12.63;7.65;;;5.30;99.90;;;5.67;100.00;98669.50;4993590;28;129424;-76
2021/12/11 04:49:08;;;;;;;13.05;7.88;;;5.30;99.90;;;5.63;100.00;98673.91;4994982;28;118934;-76
2021/12/11 04:51:45;;;;;;;10.20;7.03;;;5.40;99.90;;;5.67;100.00;98674.88;4998669;28;114669;-76
2021/12/11 04:54:34;;;;;;;11.10;7.53;;;5.40;99.90;;;5.59;100.00;98689.84;4999147;28;130636;-76
2021/12/11 04:57:33;;;;;;;12.85;8.15;;;5.40;99.90;;;5.38;100.00;98679.44;5003537;28;129785;-76
2021/12/11 05:00:08;;;;;;;12.85;7.75;;;5.40;99.90;;;5.39;100.00;98686.44;4999374;28;119240;-76
2021/12/11 05:05:49;;;;;;;10.88;7.35;;;5.50;99.90;;;5.57;100.00;98687.44;4962591;28;129951;-76
2021/12/11 05:11:11;;;;;;;11.25;7.45;;;5.50;99.90;;;5.60;100.00;98688.75;4964674;28;119305;-75
2021/12/11 05:13:59;;;;;;;10.55;6.90;;;5.50;99.90;;;5.65;100.00;98696.72;4990753;28;116564;-75
2021/12/11 05:16:29;;;;;;;12.32;7.90;;;5.50;99.90;;;5.70;100.00;98688.56;4993899;28;129860;-75
2021/12/11 05:18:57;;;;;;;11.68;7.65;;;5.60;99.90;;;5.81;100.00;98696.44;4996466;28;129559;-76
2021/12/11 05:21:26;;;;;;;11.50;7.97;;;5.60;99.90;;;5.76;100.00;98695.44;5015512;28;118966;-76
2021/12/11 05:23:57;;;;;;;12.02;8.18;;;5.60;99.90;;;5.72;100.00;98699.03;4973086;28;114162;-76
2021/12/11 05:26:25;;;;;;;11.85;8.45;;;5.60;99.90;;;5.82;100.00;98698.81;4989091;28;129947;-75
2021/12/11 05:28:55;;;;;;;11.75;8.20;;;5.60;99.90;;;5.82;100.00;98698.03;4999578;28;130277;-76
2021/12/11 05:31:23;;;;;;;12.85;8.05;;;5.70;99.90;;;5.89;100.00;98698.41;4999069;28;119427;-76
2021/12/11 05:33:54;;;;;;;12.35;8.25;;;5.70;99.90;;;5.85;100.00;98702.81;4989027;28;115685;-76
2021/12/11 05:36:27;;;;;;;15.23;8.95;;;5.70;99.90;;;5.77;100.00;98712.41;5005056;28;130196;-76
2021/12/11 05:38:56;;;;;;;15.38;10.15;;;5.70;99.90;;;5.92;100.00;98713.97;4994523;28;130874;-77
2021/12/11 05:41:26;;;;;;;13.23;9.27;;;5.80;99.90;;;5.97;100.00;98711.22;4991132;28;118624;-77
2021/12/11 05:43:56;;;;;;;15.18;10.23;;;5.80;99.90;;;5.99;100.00;98721.69;5001678;28;115382;-77
2021/12/11 05:46:25;;;;;;;14.93;10.43;;;5.80;99.90;;;5.92;100.00;98720.19;4994738;28;130267;-76
2021/12/11 05:48:56;;;;;;;16.55;11.63;;;5.80;99.90;;;5.87;100.00;98722.16;4992884;28;130143;-77
2021/12/11 05:51:29;;;;;;;17.00;10.73;;;5.80;99.90;;;5.93;100.00;98737.91;4991559;28;117969;-77
2021/12/11 05:54:00;;;;;;;17.10;11.95;;;5.90;99.90;;;6.05;100.00;98740.16;5000613;28;115849;-77
2021/12/11 05:56:34;;;;;;;18.50;11.55;;;5.90;99.90;;;5.99;100.00;98745.94;4981794;28;129097;-76
2021/12/11 05:59:07;;;;;;;18.73;11.98;;;5.90;99.90;;;6.11;100.00;98733.56;5003525;28;129916;-75
2021/12/11 06:01:40;;;;;;;19.30;12.90;;;5.90;99.90;;;6.16;100.00;98751.53;4995262;28;118419;-77
2021/12/11 06:04:15;;;;;;;19.10;12.82;;;5.90;99.90;;;6.19;100.00;98740.16;4998528;28;115869;-78
2021/12/11 06:06:46;;;;;;;20.05;13.90;;;5.90;99.90;;;6.19;100.00;98750.13;4987043;28;128851;-77
2021/12/11 06:09:23;;;;;;;18.80;13.43;;;5.90;99.90;;;6.25;100.00;98755.09;5000510;28;130193;-77
2021/12/11 06:11:56;;;;;;;21.55;13.73;;;5.90;99.90;;;6.34;100.00;98752.50;4997527;28;118990;-77
2021/12/11 06:14:25;;;;;;;20.67;13.70;;;6.00;99.90;;;6.37;100.00;98751.09;4974646;28;115584;-76
2021/12/11 06:16:57;;;;;;;23.40;15.18;;;6.00;99.90;;;6.16;100.00;98761.50;5003298;28;129572;-78
2021/12/11 06:19:35;;;;;;;22.48;15.38;;;6.00;99.90;;;6.29;100.00;98752.59;4995417;28;129795;-77
2021/12/11 06:22:04;;;;;;;;;;;6.00;99.90;;;6.19;100.00;98763.59;5019017;28;119627;-79
2021/12/11 06:24:32;;;;;;;23.17;15.82;;;6.10;99.90;;;6.28;100.00;98765.28;4998155;28;114783;-78
2021/12/11 06:27:02;;;;;;;26.38;16.25;;;6.10;99.90;;;6.39;100.00;98755.09;4995219;28;130120;-80
2021/12/11 06:29:30;;;;;;;23.63;16.08;;;6.20;99.90;;;6.35;100.00;98770.25;5001491;28;129290;-77
2021/12/11 06:31:59;;;;;;;24.20;16.02;;;6.20;99.90;;;6.42;100.00;98765.28;4976086;28;118239;-77
2021/12/11 06:34:28;;;;;;;24.75;15.95;;;6.20;99.90;;;6.47;100.00;98759.78;5001244;28;115985;-78
2021/12/11 06:36:57;;;;;;;24.95;15.98;;;6.20;99.90;;;6.45;100.00;98770.06;4998005;28;130466;-78
2021/12/11 06:39:26;;;;;;;22.88;16.42;;;6.20;99.90;;;6.39;100.00;98773.97;5002271;28;129447;-78
2021/12/11 06:42:04;;;;;;;25.50;16.23;;;6.30;99.90;;;6.60;100.00;98777.00;4998094;28;118570;-79
2021/12/11 06:44:33;;;;;;;24.73;16.02;;;6.30;99.90;;;6.55;100.00;98779.03;5019639;28;115630;-79
2021/12/11 06:47:07;;;;;;;21.05;14.75;;;6.30;99.90;;;6.59;100.00;98783.53;5005774;28;128629;-78
2021/12/11 06:49:39;;;;;;;22.23;15.52;;;6.40;99.90;;;6.60;100.00;98787.00;4993375;28;129765;-79
2021/12/11 06:52:14;;;;;;;23.33;15.65;;;6.40;99.90;;;6.58;100.00;98800.00;5003703;28;117746;-78
2021/12/11 06:54:43;;;;;;;23.33;15.10;;;6.40;99.90;;;6.71;100.00;98801.06;4992161;28;116775;-78
2021/12/11 06:57:12;;;;;;;20.88;14.75;;;6.50;99.90;;;6.63;100.00;98803.38;4984388;28;129001;-78
2021/12/11 06:59:41;;;;;;;21.73;13.18;;;6.50;99.90;;;6.64;100.00;98798.78;4992456;28;129568;-78
2021/12/11 07:02:10;;;;;;;20.85;13.93;;;6.50;99.90;;;6.62;100.00;98806.38;5001337;28;119309;-78
2021/12/11 07:04:39;;;;;;;18.80;13.32;;;6.50;99.90;;;6.65;100.00;98816.56;4996588;28;115478;-78
2021/12/11 07:07:09;;;;;;;19.70;13.30;;;6.50;99.90;;;6.63;100.00;98819.53;5002851;28;130433;-78
2021/12/11 07:09:45;;;;;;;19.05;13.05;;;6.50;99.90;;;6.74;100.00;98825.53;5002234;28;129623;-78
2021/12/11 07:12:15;;;;;;;22.42;14.30;;;6.50;99.90;;;6.74;100.00;98825.53;5006654;28;117802;-79
2021/12/11 07:14:44;;;;;;;19.67;13.15;;;6.50;99.90;;;6.64;100.00;98820.38;4969223;28;115945;-79
2021/12/11 07:17:12;;;;;;;20.33;13.63;;;6.60;99.90;;;6.76;100.00;98823.34;4999637;28;130480;-78
2021/12/11 07:19:41;;;;;;;21.30;13.80;;;6.60;99.90;;;6.76;100.00;98834.13;4988579;28;128984;-78
2021/12/11 07:22:12;;;;;;;19.55;13.02;;;6.60;99.90;;;6.60;100.00;98840.94;4998723;28;118731;-78
2021/12/11 07:24:44;;;;;;;20.50;12.63;;;6.60;99.90;;;6.66;100.00;98837.81;5010599;28;115964;-78
2021/12/11 07:27:13;;;;;;;18.13;12.68;;;6.60;99.90;;;6.70;100.00;98840.72;4989716;28;129579;-78
2021/12/11 07:29:42;;;;;;;20.13;12.82;;;6.50;99.90;;;6.61;100.00;98840.63;4978782;28;130128;-78
2021/12/11 07:32:11;;;;;;;21.85;13.45;;;6.50;99.90;;;6.78;100.00;98826.53;4991139;28;119710;-83
2021/12/11 07:34:42;;;;;;;18.33;12.30;;;6.50;99.90;;;6.69;100.00;98847.22;4985002;28;119092;-85
2021/12/11 07:37:12;;;;;;;18.60;12.40;;;6.50;99.90;;;6.70;100.00;98845.31;4984865;28;130483;-84
2021/12/11 07:39:41;;;;;;;17.45;12.02;;;6.60;99.90;;;6.85;100.00;98847.69;4985140;28;129989;-85
2021/12/11 07:42:11;;;;;;;18.77;11.10;;;6.60;99.90;;;6.69;100.00;98844.53;5001279;28;121991;-84
2021/12/11 07:44:43;;;;;;;17.10;11.52;;;6.60;99.90;;;6.68;100.00;98858.31;5003564;28;120685;-86
2021/12/11 07:47:12;;;;;;;16.50;11.48;;;6.60;99.90;;;6.68;100.00;98848.31;4988058;28;128360;-86
2021/12/11 07:49:40;;;;;;;14.65;10.60;;;6.60;99.90;;;6.64;100.00;98863.50;4969740;28;128989;-85
2021/12/11 07:52:18;;;;;;;13.05;9.85;;;6.60;99.90;;;6.68;100.00;98872.56;4976968;28;118837;-86
2021/12/11 07:54:48;;;;;;;14.38;10.13;;;6.60;99.90;;;6.76;100.00;98866.50;5005145;28;118374;-86
2021/12/11 07:57:17;;;;;;;15.70;10.10;;;6.60;99.90;;;6.77;100.00;98873.47;4986128;28;129501;-84
2021/12/11 07:59:46;;;;;;;11.88;7.80;;;6.60;99.90;;;6.69;100.00;98866.09;5004649;28;129063;-85
2021/12/11 08:02:15;;;;;;;11.43;8.13;;;6.60;99.90;;;6.72;100.00;98878.97;4989426;28;119275;-83
2021/12/11 08:04:44;;;;;;;12.45;7.75;;;6.60;99.90;;;6.68;100.00;98885.25;5012088;28;119214;-83
2021/12/11 08:07:13;;;;;;;11.05;8.05;;;6.60;99.90;;;6.62;100.00;98879.16;4982418;28;130267;-84
2021/12/11 08:09:43;;;;;;;11.23;7.88;;;6.60;99.90;;;6.73;100.00;98871.66;4985450;28;129114;-83
2021/12/11 08:12:12;;;;;;;12.02;7.55;;;6.70;99.90;;;6.65;100.00;98881.25;4986807;28;119257;-86
2021/12/11 08:14:56;;;;;;;12.23;7.55;;;6.60;99.90;;;6.71;100.00;98880.06;5011412;28;118942;-85
2021/12/11 08:17:24;;;;;;;10.73;6.70;;;6.60;99.90;;;6.79;100.00;98882.06;4993199;28;129516;-86
2021/12/11 08:19:53;;;;;;;8.50;5.78;;;6.60;99.90;;;6.66;100.00;98888.25;4969733;28;129129;-85
2021/12/11 08:22:23;;;;;;;10.65;6.90;;;6.60;99.90;;;6.72;100.00;98876.28;4985904;28;118389;-86
2021/12/11 08:24:54;;;;;;;9.50;6.07;;;6.60;99.90;;;6.82;100.00;98889.56;5005097;28;118750;-87
2021/12/11 08:27:24;;;;;;;10.95;5.95;;;6.60;99.90;;;6.82;100.00;98886.88;5000527;28;129357;-85
2021/12/11 08:29:54;;;;;;;9.88;6.40;;;6.70;99.90;;;7.01;100.00;98883.22;5005283;28;129100;-86
2021/12/11 08:32:25;;;;;;;9.55;5.88;;;6.70;99.90;;;6.78;100.00;98891.25;4989109;28;121637;-87
2021/12/11 08:34:54;;;;;;;7.63;5.03;;;6.70;99.90;;;6.99;100.00;98896.22;5003683;28;122374;-86
2021/12/11 08:37:25;;;;;;;9.30;5.63;;;6.80;99.90;;;7.04;100.00;98888.00;5006107;28;129955;-86
2021/12/11 08:39:55;;;;;;;9.18;5.45;;;6.80;99.90;;;7.13;100.00;98897.00;4989395;28;129621;-88
2021/12/11 08:42:27;;;;;;;8.52;5.55;;;6.80;99.90;;;7.13;100.00;98888.91;4989952;28;119666;-87
2021/12/11 08:45:06;;;;;;;7.78;5.28;;;6.80;99.90;;;7.09;100.00;98879.00;5006386;28;118411;-87
2021/12/11 08:47:43;;;;;;;8.60;4.85;;;6.90;99.90;;;7.22;100.00;98899.00;4991908;28;129536;-87
2021/12/11 08:50:16;;;;;;;8.43;5.28;;;6.80;99.90;;;7.20;100.00;98894.69;4986209;28;129324;-86
2021/12/11 08:52:49;;;;;;;8.10;4.95;;;6.90;99.90;;;7.06;100.00;98902.00;5003697;28;119359;-83
2021/12/11 08:55:23;;;;;;;7.68;4.72;;;6.90;99.90;;;7.20;100.00;98904.69;4986707;28;118803;-87
2021/12/11 08:57:53;;;;;;;8.07;5.00;;;6.90;99.90;;;7.14;100.00;98905.91;4985346;28;129176;-88
2021/12/11 09:00:30;;;;;;;8.50;5.18;;;6.90;99.90;;;7.16;100.00;98888.28;4987279;28;128979;-87
2021/12/11 09:03:08;;;;;;;9.57;4.72;;;7.00;99.90;;;7.08;100.00;98905.19;4987427;28;119207;-85
2021/12/11 09:05:45;;;;;;;8.68;5.13;;;6.90;99.90;;;7.29;100.00;98902.06;4985187;28;118855;-85
2021/12/11 09:08:22;;;;;;;7.57;4.63;;;7.00;99.90;;;7.26;100.00;98900.78;4998796;28;129892;-87
2021/12/11 09:10:58;;;;;;;8.55;5.18;;;7.00;99.90;;;7.30;100.00;98909.06;4986932;28;129145;-85
2021/12/11 09:13:57;;;;;;;7.78;4.90;;;7.00;99.90;;;7.30;100.00;98909.06;4973558;28;118856;-86
2021/12/11 09:16:32;;;;;;;7.90;4.82;;;7.00;99.90;;;7.30;100.00;98912.53;4986326;28;118510;-85
2021/12/11 09:19:07;;;;;;;9.23;4.82;;;7.10;99.90;;;7.51;100.00;98915.59;4990353;28;128636;-85
2021/12/11 09:21:46;;;;;;;7.63;5.13;;;7.10;99.90;;;7.41;100.00;98907.72;4971742;28;129176;-87
2021/12/11 09:24:23;;;;;;;8.00;4.63;;;7.10;99.90;;;7.42;100.00;98908.50;5002058;28;120666;-85
2021/12/11 09:26:56;;;;;;;;;;;7.10;99.90;;;7.34;100.00;98923.56;4986539;28;121658;-86
2021/12/11 09:29:31;;;;;;;8.45;4.88;;;7.10;99.90;;;7.37;100.00;98915.63;4985996;28;128968;-85
2021/12/11 09:32:14;;;;;;;6.43;4.38;;;7.10;99.90;;;7.37;100.00;98906.75;4984890;28;129714;-87
2021/12/11 09:34:54;;;;;;;8.48;4.85;;;7.10;99.90;;;7.50;100.00;98921.31;4985769;28;119586;-87
2021/12/11 09:37:23;;;;;;;8.30;5.28;;;7.10;99.90;;;7.33;100.00;98916.56;4985439;28;119280;-86
2021/12/11 09:39:56;;;;;;;7.32;4.50;;;7.00;99.90;;;7.27;100.00;98912.38;4967018;28;130149;-85
2021/12/11 09:42:46;;;;;;;7.65;5.13;;;7.00;99.90;;;7.26;100.00;98910.75;4968914;28;128839;-85
2021/12/11 09:45:21;;;;;;;9.55;5.57;;;6.90;99.90;;;7.26;100.00;98914.28;5005508;28;119497;-81
2021/12/11 09:47:56;;;;;;;8.68;5.20;;;6.90;99.90;;;7.25;100.00;98917.28;4988330;28;119378;-82
2021/12/11 09:50:31;;;;;;;6.88;4.60;;;6.90;99.90;;;7.18;100.00;98921.19;4986478;28;129017;-82
2021/12/11 09:53:00;;;;;;;6.85;4.47;;;6.80;99.90;;;7.14;100.00;98924.78;5004596;28;130139;-81
2021/12/11 09:55:36;;;;;;;6.18;4.05;;;6.80;99.90;;;7.13;100.00;98929.38;4985144;28;119589;-81
2021/12/11 09:58:33;;;;;;;6.72;4.47;;;6.80;99.90;;;7.15;100.00;98924.50;4989737;28;119059;-81
2021/12/11 10:01:10;;;;;;;7.13;4.25;;;6.80;99.90;;;7.08;100.00;98929.50;4987984;28;129423;-82
2021/12/11 10:03:48;;;;;;;6.57;3.97;;;6.70;99.90;;;7.06;100.00;98937.09;4985725;28;129668;-81
2021/12/11 10:06:40;;;;;;;7.72;4.32;;;6.70;99.90;;;7.06;100.00;98934.41;4971268;28;120008;-81
2021/12/11 10:09:21;;;;;;;6.55;4.07;;;6.70;99.90;;;7.12;100.00;98941.28;4986439;28;119297;-83
2021/12/11 10:11:57;;;;;;;6.72;4.38;;;6.70;99.90;;;7.06;100.00;98938.97;4970974;28;129741;-83
2021/12/11 10:14:32;;;;;;;6.57;4.30;;;6.60;99.90;;;7.07;100.00;98935.19;4985582;28;129497;-82
2021/12/11 10:17:10;;;;;;;7.00;4.53;;;6.60;99.90;;;7.07;100.00;98935.19;4970234;28;121170;-83
2021/12/11 10:19:41;;;;;;;8.70;5.10;;;6.70;99.90;;;7.12;100.00;98938.59;4987741;28;122141;-82
2021/12/11 10:22:17;;;;;;;12.13;6.50;;;6.70;99.90;;;7.24;100.00;98945.34;4985516;28;129998;-83
2021/12/11 10:24:47;;;;;;;12.95;6.60;;;6.70;99.90;;;7.08;100.00;98942.97;4945797;28;129519;-83
2021/12/11 10:27:21;;;;;;;9.13;5.78;;;6.70;99.90;;;7.07;100.00;98940.59;4946360;28;119525;-84
2021/12/11 10:29:52;;;;;;;9.95;6.03;;;6.70;99.90;;;7.11;100.00;98955.88;4964037;28;119061;-83
2021/12/11 10:32:33;;;;;;;9.75;5.78;;;6.60;99.90;;;6.79;100.00;98944.09;4948010;28;129375;-84
2021/12/11 10:35:09;;;;;;;9.10;5.57;;;6.60;99.90;;;6.87;100.00;98947.19;4948661;28;129272;-83
2021/12/11 10:37:39;;;;;;;9.68;6.50;;;6.50;99.90;;;6.88;100.00;98956.88;4964168;28;118458;-82
2021/12/11 10:40:16;;;;;;;10.23;6.38;;;6.50;99.90;;;6.81;100.00;98954.59;4945884;28;119738;-83
2021/12/11 10:42:51;;;;;;;9.73;6.10;;;6.50;99.90;;;6.79;100.00;98963.00;4945091;28;130480;-84
2021/12/11 10:45:23;;;;;;;11.52;8.80;;;6.50;99.90;;;6.77;100.00;98957.06;4947089;28;129678;-83